PENO2: Grand Lake O' The Cherokees, Pensacola Dm

Data processed at Fri Jan 05 2018 23:31


All information presented herein is the property of the government of the United States of America and may be revised or deleted at any time without prior notice.
Dissemination of this information without the expressed written consent of the Public Affairs Office, Tulsa District U.S. Army Corps of Engineers is strictly prohibited.
These data are gathered electronically and, as presented, have not undergone any form of quality control. These data are not guaranteed to be valid or correct.
Go to home page.
Go to station list.

Upstream stations:

Downstream station:
Previous Day
Next Day
Current Day
    
SHEF ID:       PENO2     Lake O' the Cherokees at Langley
STATION TYPE:  RESERVOIR

               PRECIP ELEVATION   STORAGE    INFLOW   RELEASE  AIR-TEMP  WIND-DIRWIND-SPEED REL-HUMID SOLAR-RAD   VOLTAGE  BAT-LOAD
                   in        ft     ac-ft       cfs       cfs         F       deg       mph         %      W/m2      volt      volt
              Ccp-Rev   Ccp-Rev   Ccp-Rev  Regi-Rev  Regi-Rev   Ccp-Rev   Ccp-Rev   Ccp-Rev   Ccp-Rev   Ccp-Rev   Ccp-Rev   Ccp-Rev
(US/Central)
01/03 00:00      0.00    742.00   1392700         0         0     17.71    174.75      2.47     61.86      0.00     12.46     12.17
01/03 01:00      0.00    742.01   1393103         0         0     17.87    178.47      2.20     62.29      0.00     12.45     12.17
01/03 02:00      0.00    742.02   1393506         0         0     18.86    177.52      2.57     58.86      0.00     12.45     12.17
01/03 03:00      0.00    742.00   1392700         0         0     19.13    187.20      3.11     54.63      0.00     12.44     12.17
01/03 04:00      0.00    742.00   1392700         0         0     18.79    168.53      3.39     54.91      0.00     12.61     12.17
01/03 05:00      0.00    742.02   1393506         0         0     18.36    144.91      1.82     58.35      0.00     13.55     13.29
01/03 06:00      0.00    742.05   1394715         0         0     17.96    158.65      2.29     59.79      0.00     13.56     13.29
01/03 07:00      0.00    742.00   1392700         0         0     17.80    195.05      3.18     60.53      0.00     13.56     13.21
01/03 08:00      0.00    742.01   1393103       132         0     16.38    194.30      2.53     66.01      5.67     13.57     13.21
01/03 09:00      0.00    742.04   1394312       397         0     17.55    198.48      2.91     64.19    128.40     13.58     13.13
01/03 10:00      0.00    742.05   1394715       397         0     20.82    277.06      4.28     58.54    241.88     13.02     13.13
01/03 11:00      0.00    742.08   1395924       397         0     25.50    329.04      9.01     62.82    368.99     12.90     12.65
01/03 12:00      0.00    742.08   1395924       397         0     28.72    336.34     12.31     63.16    476.79     12.86     12.57
01/03 13:00      0.00    742.08   1395924       265         0     30.45    326.62     10.93     57.71    519.73     12.83     12.57
01/03 14:00      0.00    742.07   1395521         0         0     32.88    324.92     11.27     53.23    482.10     12.81     12.57
01/03 15:00      0.00    742.05   1394715         0         0     34.70    317.28      9.76     47.88    391.87     12.78     12.49
01/03 16:00      0.00    742.07   1395521         0         0     36.25    311.18      9.70     44.75    250.73     12.77     12.49
01/03 17:00      0.00    742.07   1395521         0         0     35.83    317.58     10.94     42.83     88.07     12.75     12.49
01/03 18:00      0.00    742.05   1394715        44         0     33.67    292.88      5.70     41.43      0.00     12.71     12.49
01/03 19:00      0.00    742.06   1395118        88         0     31.59    275.22      4.72     43.21      0.00     12.69     12.41
01/03 20:00      0.00    742.06   1395118       108         0     30.81    300.45      6.11     46.88      0.00     12.66     12.41
01/03 21:00      0.00    742.05   1394715       108         0     31.08    322.74      7.61     51.47      0.00     12.63     12.41
01/03 22:00      0.00    742.08   1395924       108         0     30.34    331.17      8.04     52.67      0.00     12.60     12.33
01/03 23:00      0.00    742.10   1396730        64         0     29.66    345.36     10.39     57.45      0.00     12.58     12.33